sensor_id;sensor_type;location;lat;lon;timestamp;temperature;humidity
30467;DHT22;17258;52.560;13.046;2024-01-30T00:02:35;6.20;59.10
30467;DHT22;17258;52.560;13.046;2024-01-30T00:12:36;6.10;59.10
30467;DHT22;17258;52.560;13.046;2024-01-30T00:22:37;6.10;59.20
30467;DHT22;17258;52.560;13.046;2024-01-30T00:32:37;6.10;59.10
30467;DHT22;17258;52.560;13.046;2024-01-30T00:42:38;6.10;59.20
30467;DHT22;17258;52.560;13.046;2024-01-30T00:52:39;5.90;59.10
30467;DHT22;17258;52.560;13.046;2024-01-30T01:02:40;5.90;59.10
30467;DHT22;17258;52.560;13.046;2024-01-30T01:12:41;5.80;59.10
30467;DHT22;17258;52.560;13.046;2024-01-30T01:22:42;5.80;59.20
30467;DHT22;17258;52.560;13.046;2024-01-30T01:32:43;5.70;59.20
30467;DHT22;17258;52.560;13.046;2024-01-30T01:42:51;5.60;59.30
30467;DHT22;17258;52.560;13.046;2024-01-30T01:52:55;5.50;59.30
30467;DHT22;17258;52.560;13.046;2024-01-30T02:02:56;5.50;59.40
30467;DHT22;17258;52.560;13.046;2024-01-30T02:13:00;5.50;59.30
30467;DHT22;17258;52.560;13.046;2024-01-30T02:23:02;5.50;59.40
30467;DHT22;17258;52.560;13.046;2024-01-30T02:33:03;5.40;59.40
30467;DHT22;17258;52.560;13.046;2024-01-30T02:43:04;5.40;59.50
30467;DHT22;17258;52.560;13.046;2024-01-30T02:53:05;5.30;59.50
30467;DHT22;17258;52.560;13.046;2024-01-30T03:03:05;5.30;60.10
30467;DHT22;17258;52.560;13.046;2024-01-30T03:13:06;5.30;59.50
30467;DHT22;17258;52.560;13.046;2024-01-30T03:23:06;5.20;59.50
30467;DHT22;17258;52.560;13.046;2024-01-30T03:33:07;5.20;59.60
30467;DHT22;17258;52.560;13.046;2024-01-30T03:43:08;5.20;59.60
30467;DHT22;17258;52.560;13.046;2024-01-30T03:53:08;5.10;59.60
30467;DHT22;17258;52.560;13.046;2024-01-30T04:03:09;5.10;59.70
30467;DHT22;17258;52.560;13.046;2024-01-30T04:13:10;5.10;59.60
30467;DHT22;17258;52.560;13.046;2024-01-30T04:23:10;5.10;59.70
30467;DHT22;17258;52.560;13.046;2024-01-30T04:33:11;5.10;59.70
30467;DHT22;17258;52.560;13.046;2024-01-30T04:43:12;5.00;59.60
30467;DHT22;17258;52.560;13.046;2024-01-30T04:53:12;5.00;59.70
30467;DHT22;17258;52.560;13.046;2024-01-30T05:03:13;5.00;59.70
30467;DHT22;17258;52.560;13.046;2024-01-30T05:13:14;4.90;59.70
30467;DHT22;17258;52.560;13.046;2024-01-30T05:23:14;4.90;59.90
30467;DHT22;17258;52.560;13.046;2024-01-30T05:33:15;4.90;59.80
30467;DHT22;17258;52.560;13.046;2024-01-30T05:43:16;4.90;59.90
30467;DHT22;17258;52.560;13.046;2024-01-30T05:53:16;4.80;59.90
30467;DHT22;17258;52.560;13.046;2024-01-30T06:03:17;4.80;59.90
30467;DHT22;17258;52.560;13.046;2024-01-30T06:13:18;4.80;60.00
30467;DHT22;17258;52.560;13.046;2024-01-30T06:23:18;4.80;60.00
30467;DHT22;17258;52.560;13.046;2024-01-30T06:33:19;4.80;60.00
30467;DHT22;17258;52.560;13.046;2024-01-30T06:43:20;4.80;60.00
30467;DHT22;17258;52.560;13.046;2024-01-30T06:53:20;4.80;60.00
30467;DHT22;17258;52.560;13.046;2024-01-30T07:03:21;4.80;60.10
30467;DHT22;17258;52.560;13.046;2024-01-30T07:13:22;4.80;60.20
30467;DHT22;17258;52.560;13.046;2024-01-30T07:23:22;4.80;60.20
30467;DHT22;17258;52.560;13.046;2024-01-30T07:33:23;4.90;60.40
30467;DHT22;17258;52.560;13.046;2024-01-30T07:43:24;4.90;60.50
30467;DHT22;17258;52.560;13.046;2024-01-30T07:53:25;5.00;60.60
30467;DHT22;17258;52.560;13.046;2024-01-30T08:03:26;5.10;60.70
30467;DHT22;17258;52.560;13.046;2024-01-30T08:13:27;5.20;60.80
30467;DHT22;17258;52.560;13.046;2024-01-30T08:23:27;5.30;61.00
30467;DHT22;17258;52.560;13.046;2024-01-30T08:33:28;5.50;61.10
30467;DHT22;17258;52.560;13.046;2024-01-30T08:43:29;5.60;61.20
30467;DHT22;17258;52.560;13.046;2024-01-30T08:53:29;5.80;61.40
30467;DHT22;17258;52.560;13.046;2024-01-30T09:03:30;6.10;62.30
30467;DHT22;17258;52.560;13.046;2024-01-30T09:13:31;6.30;61.70
30467;DHT22;17258;52.560;13.046;2024-01-30T09:23:31;6.50;61.90
30467;DHT22;17258;52.560;13.046;2024-01-30T09:33:32;6.80;62.20
30467;DHT22;17258;52.560;13.046;2024-01-30T09:43:33;7.20;62.40
30467;DHT22;17258;52.560;13.046;2024-01-30T09:53:37;7.60;62.70
30467;DHT22;17258;52.560;13.046;2024-01-30T10:03:41;7.90;62.70
30467;DHT22;17258;52.560;13.046;2024-01-30T10:13:42;8.30;62.70
30467;DHT22;17258;52.560;13.046;2024-01-30T10:23:43;8.70;62.70
30467;DHT22;17258;52.560;13.046;2024-01-30T10:33:45;9.10;62.60
30467;DHT22;17258;52.560;13.046;2024-01-30T10:44:02;9.50;62.50
30467;DHT22;17258;52.560;13.046;2024-01-30T10:54:05;9.90;62.30
30467;DHT22;17258;52.560;13.046;2024-01-30T11:04:06;10.30;62.10
30467;DHT22;17258;52.560;13.046;2024-01-30T11:14:09;10.70;62.10
30467;DHT22;17258;52.560;13.046;2024-01-30T11:24:10;11.10;61.60
30467;DHT22;17258;52.560;13.046;2024-01-30T11:34:14;11.40;61.20
30467;DHT22;17258;52.560;13.046;2024-01-30T11:44:15;11.70;60.80
30467;DHT22;17258;52.560;13.046;2024-01-30T11:54:16;11.90;60.80
30467;DHT22;17258;52.560;13.046;2024-01-30T12:04:17;12.20;60.70
30467;DHT22;17258;52.560;13.046;2024-01-30T12:14:21;12.40;60.40
30467;DHT22;17258;52.560;13.046;2024-01-30T12:24:23;12.70;60.20
30467;DHT22;17258;52.560;13.046;2024-01-30T12:34:25;12.90;60.00
30467;DHT22;17258;52.560;13.046;2024-01-30T12:44:25;13.10;59.70
30467;DHT22;17258;52.560;13.046;2024-01-30T12:54:26;13.30;59.60
30467;DHT22;17258;52.560;13.046;2024-01-30T13:04:27;13.40;59.40
30467;DHT22;17258;52.560;13.046;2024-01-30T13:14:28;13.50;59.20
30467;DHT22;17258;52.560;13.046;2024-01-30T13:24:29;13.50;59.00
30467;DHT22;17258;52.560;13.046;2024-01-30T13:34:30;13.50;59.00
30467;DHT22;17258;52.560;13.046;2024-01-30T13:44:30;13.60;59.00
30467;DHT22;17258;52.560;13.046;2024-01-30T13:54:31;13.60;58.90
30467;DHT22;17258;52.560;13.046;2024-01-30T14:04:32;13.60;58.80
30467;DHT22;17258;52.560;13.046;2024-01-30T14:14:32;13.60;58.70
30467;DHT22;17258;52.560;13.046;2024-01-30T14:24:33;13.60;58.70
30467;DHT22;17258;52.560;13.046;2024-01-30T14:34:34;13.60;58.60
30467;DHT22;17258;52.560;13.046;2024-01-30T14:44:35;13.60;58.60
30467;DHT22;17258;52.560;13.046;2024-01-30T14:54:36;13.60;58.60
30467;DHT22;17258;52.560;13.046;2024-01-30T15:04:37;13.50;58.50
30467;DHT22;17258;52.560;13.046;2024-01-30T15:14:38;13.40;58.30
30467;DHT22;17258;52.560;13.046;2024-01-30T15:24:39;13.30;58.50
30467;DHT22;17258;52.560;13.046;2024-01-30T15:34:40;13.20;58.30
30467;DHT22;17258;52.560;13.046;2024-01-30T15:44:40;13.10;58.20
30467;DHT22;17258;52.560;13.046;2024-01-30T15:54:41;12.90;58.20
30467;DHT22;17258;52.560;13.046;2024-01-30T16:04:42;12.80;58.20
30467;DHT22;17258;52.560;13.046;2024-01-30T16:14:42;12.60;58.20
30467;DHT22;17258;52.560;13.046;2024-01-30T16:24:44;12.40;58.20
30467;DHT22;17258;52.560;13.046;2024-01-30T16:34:45;12.20;58.20
30467;DHT22;17258;52.560;13.046;2024-01-30T16:44:45;12.00;58.30
30467;DHT22;17258;52.560;13.046;2024-01-30T16:54:47;11.80;58.30
30467;DHT22;17258;52.560;13.046;2024-01-30T17:04:47;11.70;58.50
30467;DHT22;17258;52.560;13.046;2024-01-30T17:14:48;11.50;58.40
30467;DHT22;17258;52.560;13.046;2024-01-30T17:24:50;11.30;58.50
30467;DHT22;17258;52.560;13.046;2024-01-30T17:34:51;11.20;58.60
30467;DHT22;17258;52.560;13.046;2024-01-30T17:44:52;11.10;58.60
30467;DHT22;17258;52.560;13.046;2024-01-30T17:54:53;10.90;58.80
30467;DHT22;17258;52.560;13.046;2024-01-30T18:04:54;10.90;59.10
30467;DHT22;17258;52.560;13.046;2024-01-30T18:14:54;10.90;59.40
30467;DHT22;17258;52.560;13.046;2024-01-30T18:24:55;11.00;59.60
30467;DHT22;17258;52.560;13.046;2024-01-30T18:34:56;11.00;59.80
30467;DHT22;17258;52.560;13.046;2024-01-30T18:44:56;11.20;60.00
30467;DHT22;17258;52.560;13.046;2024-01-30T18:54:57;11.30;60.10
30467;DHT22;17258;52.560;13.046;2024-01-30T19:04:58;11.50;60.20
30467;DHT22;17258;52.560;13.046;2024-01-30T19:14:59;11.60;60.30
30467;DHT22;17258;52.560;13.046;2024-01-30T19:24:59;11.80;60.40
30467;DHT22;17258;52.560;13.046;2024-01-30T19:35:05;11.90;60.40
30467;DHT22;17258;52.560;13.046;2024-01-30T19:45:06;12.10;60.40
30467;DHT22;17258;52.560;13.046;2024-01-30T19:55:11;12.20;60.40
30467;DHT22;17258;52.560;13.046;2024-01-30T20:05:12;12.30;60.40
30467;DHT22;17258;52.560;13.046;2024-01-30T20:15:13;12.40;60.40
30467;DHT22;17258;52.560;13.046;2024-01-30T20:25:14;12.50;60.40
30467;DHT22;17258;52.560;13.046;2024-01-30T20:35:15;12.60;60.50
30467;DHT22;17258;52.560;13.046;2024-01-30T20:45:16;12.60;60.60
30467;DHT22;17258;52.560;13.046;2024-01-30T20:55:17;12.70;60.50
30467;DHT22;17258;52.560;13.046;2024-01-30T21:05:17;12.70;60.50
30467;DHT22;17258;52.560;13.046;2024-01-30T21:15:22;12.80;60.80
30467;DHT22;17258;52.560;13.046;2024-01-30T21:25:23;12.80;60.80
30467;DHT22;17258;52.560;13.046;2024-01-30T21:35:23;12.90;60.80
30467;DHT22;17258;52.560;13.046;2024-01-30T21:45:24;12.90;60.80
30467;DHT22;17258;52.560;13.046;2024-01-30T21:55:25;12.90;60.80
30467;DHT22;17258;52.560;13.046;2024-01-30T22:05:26;12.90;60.80
30467;DHT22;17258;52.560;13.046;2024-01-30T22:15:26;13.00;61.00
30467;DHT22;17258;52.560;13.046;2024-01-30T22:25:29;13.00;61.30
30467;DHT22;17258;52.560;13.046;2024-01-30T22:35:29;13.00;61.30
30467;DHT22;17258;52.560;13.046;2024-01-30T22:45:30;13.00;61.50
30467;DHT22;17258;52.560;13.046;2024-01-30T22:55:31;13.00;61.30
30467;DHT22;17258;52.560;13.046;2024-01-30T23:05:31;13.00;60.80
30467;DHT22;17258;52.560;13.046;2024-01-30T23:15:33;12.90;60.50
30467;DHT22;17258;52.560;13.046;2024-01-30T23:25:34;12.70;60.60
30467;DHT22;17258;52.560;13.046;2024-01-30T23:35:35;12.60;61.20
30467;DHT22;17258;52.560;13.046;2024-01-30T23:45:35;12.60;61.60
30467;DHT22;17258;52.560;13.046;2024-01-30T23:55:36;12.60;61.80
